sensor_id;sensor_type;location;lat;lon;timestamp;P1;durP1;ratioP1;P2;durP2;ratioP2
47764;SDS011;33529;49.242;8.670;2022-07-29T00:02:30;6.35;;;3.97;;
47764;SDS011;33529;49.242;8.670;2022-07-29T00:04:58;5.88;;;4.60;;
47764;SDS011;33529;49.242;8.670;2022-07-29T00:07:25;6.28;;;4.07;;
47764;SDS011;33529;49.242;8.670;2022-07-29T00:09:52;4.63;;;4.15;;
47764;SDS011;33529;49.242;8.670;2022-07-29T00:12:19;5.03;;;3.78;;
47764;SDS011;33529;49.242;8.670;2022-07-29T00:14:55;5.70;;;4.45;;
47764;SDS011;33529;49.242;8.670;2022-07-29T00:17:23;4.68;;;3.92;;
47764;SDS011;33529;49.242;8.670;2022-07-29T00:19:50;8.10;;;4.57;;
47764;SDS011;33529;49.242;8.670;2022-07-29T00:22:18;6.03;;;4.40;;
47764;SDS011;33529;49.242;8.670;2022-07-29T00:24:49;6.35;;;4.57;;
47764;SDS011;33529;49.242;8.670;2022-07-29T00:27:16;7.13;;;4.63;;
47764;SDS011;33529;49.242;8.670;2022-07-29T00:29:43;9.32;;;4.38;;
47764;SDS011;33529;49.242;8.670;2022-07-29T00:32:10;7.50;;;4.72;;
47764;SDS011;33529;49.242;8.670;2022-07-29T00:34:37;7.70;;;4.28;;
47764;SDS011;33529;49.242;8.670;2022-07-29T00:37:23;6.07;;;4.32;;
47764;SDS011;33529;49.242;8.670;2022-07-29T00:39:50;4.20;;;3.80;;
47764;SDS011;33529;49.242;8.670;2022-07-29T00:42:17;4.47;;;3.70;;
47764;SDS011;33529;49.242;8.670;2022-07-29T00:44:44;6.25;;;4.45;;
47764;SDS011;33529;49.242;8.670;2022-07-29T00:47:11;5.82;;;4.13;;
47764;SDS011;33529;49.242;8.670;2022-07-29T00:49:39;5.32;;;4.20;;
47764;SDS011;33529;49.242;8.670;2022-07-29T00:52:07;7.22;;;4.30;;
47764;SDS011;33529;49.242;8.670;2022-07-29T00:54:35;7.83;;;5.03;;
47764;SDS011;33529;49.242;8.670;2022-07-29T00:57:10;7.22;;;4.18;;
47764;SDS011;33529;49.242;8.670;2022-07-29T00:59:37;8.60;;;3.97;;
47764;SDS011;33529;49.242;8.670;2022-07-29T01:02:04;5.63;;;4.55;;
47764;SDS011;33529;49.242;8.670;2022-07-29T01:04:32;6.10;;;4.07;;
47764;SDS011;33529;49.242;8.670;2022-07-29T01:07:00;6.05;;;4.65;;
47764;SDS011;33529;49.242;8.670;2022-07-29T01:09:28;7.03;;;4.45;;
47764;SDS011;33529;49.242;8.670;2022-07-29T01:12:15;5.82;;;4.40;;
47764;SDS011;33529;49.242;8.670;2022-07-29T01:14:45;5.63;;;4.60;;
47764;SDS011;33529;49.242;8.670;2022-07-29T01:31:35;6.50;;;4.70;;
47764;SDS011;33529;49.242;8.670;2022-07-29T01:37:19;7.75;;;4.70;;
47764;SDS011;33529;49.242;8.670;2022-07-29T01:40:08;5.60;;;4.63;;
47764;SDS011;33529;49.242;8.670;2022-07-29T01:42:48;5.25;;;4.57;;
47764;SDS011;33529;49.242;8.670;2022-07-29T01:45:20;6.13;;;5.22;;
47764;SDS011;33529;49.242;8.670;2022-07-29T01:48:00;5.40;;;4.88;;
47764;SDS011;33529;49.242;8.670;2022-07-29T01:53:04;5.50;;;5.00;;
47764;SDS011;33529;49.242;8.670;2022-07-29T01:55:34;5.93;;;4.63;;
47764;SDS011;33529;49.242;8.670;2022-07-29T01:58:03;6.30;;;4.82;;
47764;SDS011;33529;49.242;8.670;2022-07-29T02:00:32;6.25;;;4.85;;
47764;SDS011;33529;49.242;8.670;2022-07-29T02:03:02;5.07;;;4.32;;
47764;SDS011;33529;49.242;8.670;2022-07-29T02:05:32;8.43;;;5.10;;
47764;SDS011;33529;49.242;8.670;2022-07-29T02:08:01;5.35;;;4.82;;
47764;SDS011;33529;49.242;8.670;2022-07-29T02:10:29;7.05;;;4.85;;
47764;SDS011;33529;49.242;8.670;2022-07-29T02:12:58;7.68;;;4.97;;
47764;SDS011;33529;49.242;8.670;2022-07-29T02:15:28;9.10;;;5.68;;
47764;SDS011;33529;49.242;8.670;2022-07-29T02:18:00;7.38;;;5.57;;
47764;SDS011;33529;49.242;8.670;2022-07-29T02:20:30;5.70;;;4.72;;
47764;SDS011;33529;49.242;8.670;2022-07-29T02:22:59;7.43;;;5.22;;
47764;SDS011;33529;49.242;8.670;2022-07-29T02:25:27;6.65;;;5.43;;
47764;SDS011;33529;49.242;8.670;2022-07-29T02:28:03;5.38;;;4.88;;
47764;SDS011;33529;49.242;8.670;2022-07-29T02:30:31;5.65;;;5.05;;
47764;SDS011;33529;49.242;8.670;2022-07-29T02:33:02;6.10;;;4.53;;
47764;SDS011;33529;49.242;8.670;2022-07-29T02:35:30;5.63;;;5.13;;
47764;SDS011;33529;49.242;8.670;2022-07-29T02:38:00;6.85;;;5.43;;
47764;SDS011;33529;49.242;8.670;2022-07-29T02:40:47;7.90;;;5.75;;
47764;SDS011;33529;49.242;8.670;2022-07-29T02:43:16;5.63;;;4.93;;
47764;SDS011;33529;49.242;8.670;2022-07-29T02:45:44;6.40;;;5.38;;
47764;SDS011;33529;49.242;8.670;2022-07-29T02:48:17;6.90;;;4.75;;
47764;SDS011;33529;49.242;8.670;2022-07-29T02:50:52;7.15;;;5.30;;
47764;SDS011;33529;49.242;8.670;2022-07-29T02:53:27;6.00;;;5.03;;
47764;SDS011;33529;49.242;8.670;2022-07-29T02:55:59;7.95;;;5.20;;
47764;SDS011;33529;49.242;8.670;2022-07-29T02:58:33;6.13;;;5.38;;
47764;SDS011;33529;49.242;8.670;2022-07-29T03:01:07;6.40;;;5.47;;
47764;SDS011;33529;49.242;8.670;2022-07-29T03:03:44;7.07;;;4.90;;
47764;SDS011;33529;49.242;8.670;2022-07-29T03:06:13;9.98;;;5.65;;
47764;SDS011;33529;49.242;8.670;2022-07-29T03:09:01;6.30;;;5.35;;
47764;SDS011;33529;49.242;8.670;2022-07-29T03:14:16;6.25;;;4.82;;
47764;SDS011;33529;49.242;8.670;2022-07-29T03:16:46;6.28;;;5.28;;
47764;SDS011;33529;49.242;8.670;2022-07-29T03:19:13;5.43;;;4.88;;
47764;SDS011;33529;49.242;8.670;2022-07-29T03:21:40;5.72;;;4.57;;
47764;SDS011;33529;49.242;8.670;2022-07-29T03:24:07;5.60;;;4.78;;
47764;SDS011;33529;49.242;8.670;2022-07-29T03:26:36;6.70;;;5.63;;
47764;SDS011;33529;49.242;8.670;2022-07-29T03:29:03;6.38;;;4.97;;
47764;SDS011;33529;49.242;8.670;2022-07-29T03:31:30;6.03;;;4.88;;
47764;SDS011;33529;49.242;8.670;2022-07-29T03:33:58;7.10;;;5.00;;
47764;SDS011;33529;49.242;8.670;2022-07-29T03:36:25;5.32;;;4.80;;
47764;SDS011;33529;49.242;8.670;2022-07-29T03:38:52;5.53;;;4.57;;
47764;SDS011;33529;49.242;8.670;2022-07-29T03:41:20;6.20;;;5.05;;
47764;SDS011;33529;49.242;8.670;2022-07-29T03:43:49;6.63;;;4.88;;
47764;SDS011;33529;49.242;8.670;2022-07-29T03:46:20;5.95;;;5.10;;
47764;SDS011;33529;49.242;8.670;2022-07-29T03:48:50;5.40;;;4.75;;
47764;SDS011;33529;49.242;8.670;2022-07-29T03:51:21;7.18;;;5.47;;
47764;SDS011;33529;49.242;8.670;2022-07-29T03:53:59;5.72;;;5.03;;
47764;SDS011;33529;49.242;8.670;2022-07-29T03:56:40;6.32;;;5.47;;
47764;SDS011;33529;49.242;8.670;2022-07-29T03:59:08;6.20;;;5.55;;
47764;SDS011;33529;49.242;8.670;2022-07-29T04:01:37;6.97;;;5.40;;
47764;SDS011;33529;49.242;8.670;2022-07-29T04:04:06;6.95;;;5.75;;
47764;SDS011;33529;49.242;8.670;2022-07-29T04:06:40;8.00;;;5.97;;
47764;SDS011;33529;49.242;8.670;2022-07-29T04:09:08;6.90;;;5.50;;
47764;SDS011;33529;49.242;8.670;2022-07-29T04:11:35;6.75;;;5.53;;
47764;SDS011;33529;49.242;8.670;2022-07-29T04:14:24;5.88;;;5.28;;
47764;SDS011;33529;49.242;8.670;2022-07-29T04:16:51;5.50;;;4.97;;
47764;SDS011;33529;49.242;8.670;2022-07-29T04:19:19;6.13;;;5.30;;
47764;SDS011;33529;49.242;8.670;2022-07-29T04:21:46;6.78;;;5.40;;
47764;SDS011;33529;49.242;8.670;2022-07-29T04:24:15;7.90;;;5.43;;
47764;SDS011;33529;49.242;8.670;2022-07-29T04:26:42;8.25;;;5.25;;
47764;SDS011;33529;49.242;8.670;2022-07-29T04:29:09;7.80;;;4.70;;
47764;SDS011;33529;49.242;8.670;2022-07-29T04:31:38;5.45;;;4.75;;
47764;SDS011;33529;49.242;8.670;2022-07-29T04:34:05;6.45;;;5.75;;
47764;SDS011;33529;49.242;8.670;2022-07-29T04:36:32;7.40;;;5.20;;
47764;SDS011;33529;49.242;8.670;2022-07-29T04:38:59;6.03;;;5.25;;
47764;SDS011;33529;49.242;8.670;2022-07-29T04:41:27;6.38;;;5.20;;
47764;SDS011;33529;49.242;8.670;2022-07-29T04:43:58;7.03;;;5.20;;
47764;SDS011;33529;49.242;8.670;2022-07-29T04:46:32;6.65;;;4.95;;
47764;SDS011;33529;49.242;8.670;2022-07-29T04:48:59;7.15;;;5.43;;
47764;SDS011;33529;49.242;8.670;2022-07-29T04:51:26;6.25;;;5.28;;
47764;SDS011;33529;49.242;8.670;2022-07-29T04:53:53;6.35;;;5.32;;
47764;SDS011;33529;49.242;8.670;2022-07-29T04:56:20;6.68;;;5.28;;
47764;SDS011;33529;49.242;8.670;2022-07-29T04:58:47;6.57;;;5.10;;
47764;SDS011;33529;49.242;8.670;2022-07-29T05:01:14;6.20;;;5.05;;
47764;SDS011;33529;49.242;8.670;2022-07-29T05:03:41;6.97;;;5.95;;
47764;SDS011;33529;49.242;8.670;2022-07-29T05:06:08;8.38;;;5.55;;
47764;SDS011;33529;49.242;8.670;2022-07-29T05:08:35;6.38;;;5.78;;
47764;SDS011;33529;49.242;8.670;2022-07-29T05:11:01;5.68;;;5.05;;
47764;SDS011;33529;49.242;8.670;2022-07-29T05:13:39;6.57;;;5.00;;
47764;SDS011;33529;49.242;8.670;2022-07-29T05:16:12;5.97;;;5.38;;
47764;SDS011;33529;49.242;8.670;2022-07-29T05:18:40;6.20;;;5.20;;
47764;SDS011;33529;49.242;8.670;2022-07-29T05:21:07;8.10;;;5.78;;
47764;SDS011;33529;49.242;8.670;2022-07-29T05:23:34;7.28;;;5.57;;
47764;SDS011;33529;49.242;8.670;2022-07-29T05:26:01;4.97;;;4.40;;
47764;SDS011;33529;49.242;8.670;2022-07-29T05:28:27;5.65;;;4.60;;
47764;SDS011;33529;49.242;8.670;2022-07-29T05:30:54;6.95;;;5.05;;
47764;SDS011;33529;49.242;8.670;2022-07-29T05:33:22;5.15;;;4.65;;
47764;SDS011;33529;49.242;8.670;2022-07-29T05:36:05;8.95;;;5.22;;
47764;SDS011;33529;49.242;8.670;2022-07-29T05:38:34;6.78;;;4.70;;
47764;SDS011;33529;49.242;8.670;2022-07-29T05:41:02;6.03;;;4.88;;
47764;SDS011;33529;49.242;8.670;2022-07-29T05:43:29;6.50;;;4.88;;
47764;SDS011;33529;49.242;8.670;2022-07-29T05:45:56;5.78;;;4.88;;
47764;SDS011;33529;49.242;8.670;2022-07-29T05:48:23;5.70;;;4.43;;
47764;SDS011;33529;49.242;8.670;2022-07-29T05:50:50;5.40;;;4.60;;
47764;SDS011;33529;49.242;8.670;2022-07-29T05:53:17;5.13;;;4.10;;
47764;SDS011;33529;49.242;8.670;2022-07-29T05:55:46;5.80;;;4.65;;
47764;SDS011;33529;49.242;8.670;2022-07-29T05:58:14;6.25;;;4.97;;
47764;SDS011;33529;49.242;8.670;2022-07-29T06:00:40;5.93;;;4.15;;
47764;SDS011;33529;49.242;8.670;2022-07-29T06:03:08;5.47;;;4.38;;
47764;SDS011;33529;49.242;8.670;2022-07-29T06:05:34;6.18;;;4.53;;
47764;SDS011;33529;49.242;8.670;2022-07-29T06:08:01;6.20;;;4.43;;
47764;SDS011;33529;49.242;8.670;2022-07-29T06:10:29;7.95;;;4.45;;
47764;SDS011;33529;49.242;8.670;2022-07-29T06:12:56;4.97;;;4.40;;
47764;SDS011;33529;49.242;8.670;2022-07-29T06:15:22;4.68;;;3.70;;
47764;SDS011;33529;49.242;8.670;2022-07-29T06:17:49;5.07;;;4.47;;
47764;SDS011;33529;49.242;8.670;2022-07-29T06:20:29;7.90;;;5.10;;
47764;SDS011;33529;49.242;8.670;2022-07-29T06:22:57;5.80;;;4.53;;
47764;SDS011;33529;49.242;8.670;2022-07-29T06:25:25;6.05;;;5.00;;
47764;SDS011;33529;49.242;8.670;2022-07-29T06:27:55;5.53;;;4.22;;
47764;SDS011;33529;49.242;8.670;2022-07-29T06:30:22;9.05;;;4.63;;
47764;SDS011;33529;49.242;8.670;2022-07-29T06:32:50;5.72;;;4.57;;
47764;SDS011;33529;49.242;8.670;2022-07-29T06:35:16;7.10;;;5.22;;
47764;SDS011;33529;49.242;8.670;2022-07-29T06:38:04;5.65;;;4.65;;
47764;SDS011;33529;49.242;8.670;2022-07-29T06:40:50;6.38;;;5.10;;
47764;SDS011;33529;49.242;8.670;2022-07-29T06:43:31;6.18;;;4.53;;
47764;SDS011;33529;49.242;8.670;2022-07-29T06:46:00;5.38;;;4.40;;
47764;SDS011;33529;49.242;8.670;2022-07-29T06:48:29;6.72;;;4.70;;
47764;SDS011;33529;49.242;8.670;2022-07-29T06:50:56;5.20;;;4.35;;
47764;SDS011;33529;49.242;8.670;2022-07-29T06:53:24;8.07;;;4.93;;
47764;SDS011;33529;49.242;8.670;2022-07-29T06:55:51;5.70;;;5.00;;
47764;SDS011;33529;49.242;8.670;2022-07-29T06:58:18;7.80;;;4.78;;
47764;SDS011;33529;49.242;8.670;2022-07-29T07:00:56;8.98;;;5.28;;
47764;SDS011;33529;49.242;8.670;2022-07-29T07:03:23;5.85;;;4.70;;
47764;SDS011;33529;49.242;8.670;2022-07-29T07:05:51;8.77;;;5.20;;
47764;SDS011;33529;49.242;8.670;2022-07-29T07:08:20;5.65;;;4.30;;
47764;SDS011;33529;49.242;8.670;2022-07-29T07:10:48;6.47;;;4.78;;
47764;SDS011;33529;49.242;8.670;2022-07-29T07:13:15;6.45;;;4.88;;
47764;SDS011;33529;49.242;8.670;2022-07-29T07:15:43;5.68;;;4.93;;
47764;SDS011;33529;49.242;8.670;2022-07-29T07:18:11;6.97;;;5.38;;
47764;SDS011;33529;49.242;8.670;2022-07-29T07:20:38;6.75;;;4.30;;
47764;SDS011;33529;49.242;8.670;2022-07-29T07:23:05;5.10;;;4.60;;
47764;SDS011;33529;49.242;8.670;2022-07-29T07:25:32;6.10;;;5.00;;
47764;SDS011;33529;49.242;8.670;2022-07-29T07:27:59;8.10;;;5.30;;
47764;SDS011;33529;49.242;8.670;2022-07-29T07:30:26;6.20;;;5.10;;
47764;SDS011;33529;49.242;8.670;2022-07-29T07:32:53;7.35;;;6.60;;
47764;SDS011;33529;49.242;8.670;2022-07-29T07:35:21;6.50;;;5.50;;
47764;SDS011;33529;49.242;8.670;2022-07-29T07:37:48;6.70;;;5.45;;
47764;SDS011;33529;49.242;8.670;2022-07-29T07:40:15;6.53;;;5.22;;
47764;SDS011;33529;49.242;8.670;2022-07-29T07:42:44;6.57;;;5.22;;
47764;SDS011;33529;49.242;8.670;2022-07-29T07:45:11;6.82;;;5.55;;
47764;SDS011;33529;49.242;8.670;2022-07-29T07:47:41;6.72;;;4.93;;
47764;SDS011;33529;49.242;8.670;2022-07-29T07:50:09;6.47;;;5.38;;
47764;SDS011;33529;49.242;8.670;2022-07-29T07:52:47;6.60;;;5.93;;
47764;SDS011;33529;49.242;8.670;2022-07-29T07:55:18;7.10;;;6.10;;
47764;SDS011;33529;49.242;8.670;2022-07-29T07:57:46;7.90;;;5.20;;
47764;SDS011;33529;49.242;8.670;2022-07-29T08:00:14;7.68;;;4.78;;
47764;SDS011;33529;49.242;8.670;2022-07-29T08:02:42;7.65;;;5.38;;
47764;SDS011;33529;49.242;8.670;2022-07-29T08:05:11;7.50;;;5.00;;
47764;SDS011;33529;49.242;8.670;2022-07-29T08:07:43;7.55;;;5.95;;
47764;SDS011;33529;49.242;8.670;2022-07-29T08:10:14;6.68;;;5.80;;
47764;SDS011;33529;49.242;8.670;2022-07-29T08:13:06;5.28;;;4.78;;
47764;SDS011;33529;49.242;8.670;2022-07-29T08:15:33;5.72;;;5.05;;
47764;SDS011;33529;49.242;8.670;2022-07-29T08:18:01;8.52;;;5.45;;
47764;SDS011;33529;49.242;8.670;2022-07-29T08:20:35;6.70;;;5.38;;
47764;SDS011;33529;49.242;8.670;2022-07-29T08:23:03;7.57;;;6.10;;
47764;SDS011;33529;49.242;8.670;2022-07-29T08:25:32;6.50;;;5.03;;
47764;SDS011;33529;49.242;8.670;2022-07-29T08:28:04;5.72;;;4.75;;
47764;SDS011;33529;49.242;8.670;2022-07-29T08:30:31;6.95;;;5.20;;
47764;SDS011;33529;49.242;8.670;2022-07-29T08:32:58;8.73;;;4.80;;
47764;SDS011;33529;49.242;8.670;2022-07-29T08:35:26;6.07;;;5.47;;
47764;SDS011;33529;49.242;8.670;2022-07-29T08:37:58;6.72;;;4.82;;
47764;SDS011;33529;49.242;8.670;2022-07-29T08:40:27;10.70;;;4.85;;
47764;SDS011;33529;49.242;8.670;2022-07-29T08:42:57;6.03;;;5.25;;
47764;SDS011;33529;49.242;8.670;2022-07-29T08:45:24;7.63;;;4.68;;
47764;SDS011;33529;49.242;8.670;2022-07-29T08:47:52;5.20;;;4.50;;
47764;SDS011;33529;49.242;8.670;2022-07-29T08:50:19;5.68;;;5.13;;
47764;SDS011;33529;49.242;8.670;2022-07-29T08:52:46;5.95;;;4.63;;
47764;SDS011;33529;49.242;8.670;2022-07-29T08:55:16;6.85;;;4.88;;
47764;SDS011;33529;49.242;8.670;2022-07-29T08:57:46;7.15;;;4.45;;
47764;SDS011;33529;49.242;8.670;2022-07-29T09:00:19;6.82;;;4.00;;
47764;SDS011;33529;49.242;8.670;2022-07-29T09:02:48;5.18;;;4.05;;
47764;SDS011;33529;49.242;8.670;2022-07-29T09:05:22;6.93;;;4.63;;
47764;SDS011;33529;49.242;8.670;2022-07-29T09:07:50;7.35;;;4.50;;
47764;SDS011;33529;49.242;8.670;2022-07-29T09:10:18;4.75;;;3.90;;
47764;SDS011;33529;49.242;8.670;2022-07-29T09:12:45;4.97;;;4.30;;
47764;SDS011;33529;49.242;8.670;2022-07-29T09:15:12;5.38;;;4.65;;
47764;SDS011;33529;49.242;8.670;2022-07-29T09:17:40;7.25;;;4.60;;
47764;SDS011;33529;49.242;8.670;2022-07-29T09:20:09;5.18;;;4.35;;
47764;SDS011;33529;49.242;8.670;2022-07-29T09:22:37;5.82;;;4.25;;
47764;SDS011;33529;49.242;8.670;2022-07-29T09:25:07;4.45;;;4.03;;
47764;SDS011;33529;49.242;8.670;2022-07-29T09:27:35;5.22;;;4.70;;
47764;SDS011;33529;49.242;8.670;2022-07-29T09:30:05;6.88;;;5.07;;
47764;SDS011;33529;49.242;8.670;2022-07-29T09:32:59;5.78;;;4.30;;
47764;SDS011;33529;49.242;8.670;2022-07-29T09:35:28;7.90;;;5.00;;
47764;SDS011;33529;49.242;8.670;2022-07-29T09:37:56;7.70;;;5.03;;
47764;SDS011;33529;49.242;8.670;2022-07-29T09:40:25;6.43;;;5.20;;
47764;SDS011;33529;49.242;8.670;2022-07-29T09:42:54;5.60;;;4.80;;
47764;SDS011;33529;49.242;8.670;2022-07-29T09:45:28;6.57;;;4.72;;
47764;SDS011;33529;49.242;8.670;2022-07-29T09:47:56;5.70;;;4.80;;
47764;SDS011;33529;49.242;8.670;2022-07-29T09:50:36;6.47;;;4.75;;
47764;SDS011;33529;49.242;8.670;2022-07-29T09:53:04;5.28;;;4.78;;
47764;SDS011;33529;49.242;8.670;2022-07-29T09:55:32;7.35;;;4.78;;
47764;SDS011;33529;49.242;8.670;2022-07-29T09:58:15;7.15;;;5.40;;
47764;SDS011;33529;49.242;8.670;2022-07-29T10:00:47;8.57;;;5.55;;
47764;SDS011;33529;49.242;8.670;2022-07-29T10:03:16;9.52;;;5.53;;
47764;SDS011;33529;49.242;8.670;2022-07-29T10:05:43;8.13;;;4.85;;
47764;SDS011;33529;49.242;8.670;2022-07-29T10:08:11;5.05;;;4.55;;
47764;SDS011;33529;49.242;8.670;2022-07-29T10:10:40;6.10;;;4.65;;
47764;SDS011;33529;49.242;8.670;2022-07-29T10:13:09;6.32;;;4.75;;
47764;SDS011;33529;49.242;8.670;2022-07-29T10:15:42;5.35;;;4.70;;
47764;SDS011;33529;49.242;8.670;2022-07-29T10:18:12;7.17;;;4.63;;
47764;SDS011;33529;49.242;8.670;2022-07-29T10:20:40;6.28;;;4.47;;
47764;SDS011;33529;49.242;8.670;2022-07-29T10:23:08;7.10;;;4.97;;
47764;SDS011;33529;49.242;8.670;2022-07-29T10:25:35;6.07;;;4.60;;
47764;SDS011;33529;49.242;8.670;2022-07-29T10:28:02;10.07;;;5.30;;
47764;SDS011;33529;49.242;8.670;2022-07-29T10:30:29;7.75;;;4.55;;
47764;SDS011;33529;49.242;8.670;2022-07-29T10:44:59;7.63;;;5.05;;
47764;SDS011;33529;49.242;8.670;2022-07-29T10:47:29;6.75;;;4.47;;
47764;SDS011;33529;49.242;8.670;2022-07-29T10:49:58;4.93;;;4.07;;
47764;SDS011;33529;49.242;8.670;2022-07-29T10:55:41;5.95;;;4.35;;
47764;SDS011;33529;49.242;8.670;2022-07-29T10:58:13;6.32;;;4.10;;
47764;SDS011;33529;49.242;8.670;2022-07-29T11:00:43;5.05;;;3.92;;
47764;SDS011;33529;49.242;8.670;2022-07-29T11:03:42;7.68;;;3.80;;
47764;SDS011;33529;49.242;8.670;2022-07-29T11:06:16;5.82;;;4.00;;
47764;SDS011;33529;49.242;8.670;2022-07-29T11:11:41;7.18;;;4.65;;
47764;SDS011;33529;49.242;8.670;2022-07-29T11:14:16;5.50;;;3.88;;
47764;SDS011;33529;49.242;8.670;2022-07-29T11:16:57;6.07;;;4.38;;
47764;SDS011;33529;49.242;8.670;2022-07-29T11:19:32;5.20;;;3.95;;
47764;SDS011;33529;49.242;8.670;2022-07-29T11:22:01;8.35;;;4.50;;
47764;SDS011;33529;49.242;8.670;2022-07-29T11:24:29;7.15;;;4.50;;
47764;SDS011;33529;49.242;8.670;2022-07-29T11:27:05;6.93;;;3.58;;
47764;SDS011;33529;49.242;8.670;2022-07-29T11:29:35;5.60;;;3.85;;
47764;SDS011;33529;49.242;8.670;2022-07-29T11:32:12;4.90;;;3.88;;
47764;SDS011;33529;49.242;8.670;2022-07-29T11:34:49;8.40;;;4.53;;
47764;SDS011;33529;49.242;8.670;2022-07-29T11:38:23;9.55;;;3.90;;
47764;SDS011;33529;49.242;8.670;2022-07-29T11:43:49;6.20;;;3.92;;
47764;SDS011;33529;49.242;8.670;2022-07-29T11:49:20;5.55;;;4.22;;
47764;SDS011;33529;49.242;8.670;2022-07-29T11:52:11;7.05;;;4.00;;
47764;SDS011;33529;49.242;8.670;2022-07-29T11:54:39;4.93;;;3.92;;
47764;SDS011;33529;49.242;8.670;2022-07-29T11:57:26;5.20;;;4.22;;
47764;SDS011;33529;49.242;8.670;2022-07-29T12:00:05;6.60;;;3.85;;
47764;SDS011;33529;49.242;8.670;2022-07-29T12:02:41;6.40;;;3.97;;
47764;SDS011;33529;49.242;8.670;2022-07-29T12:05:14;6.40;;;4.10;;
47764;SDS011;33529;49.242;8.670;2022-07-29T12:07:49;5.07;;;4.35;;
47764;SDS011;33529;49.242;8.670;2022-07-29T12:10:17;5.28;;;4.00;;
47764;SDS011;33529;49.242;8.670;2022-07-29T12:12:56;7.15;;;4.15;;
47764;SDS011;33529;49.242;8.670;2022-07-29T12:15:23;5.65;;;3.85;;
47764;SDS011;33529;49.242;8.670;2022-07-29T12:18:13;4.20;;;3.78;;
47764;SDS011;33529;49.242;8.670;2022-07-29T12:20:43;14.07;;;4.72;;
47764;SDS011;33529;49.242;8.670;2022-07-29T12:23:12;6.72;;;4.03;;
47764;SDS011;33529;49.242;8.670;2022-07-29T12:25:41;6.80;;;3.95;;
47764;SDS011;33529;49.242;8.670;2022-07-29T12:28:14;7.30;;;4.57;;
47764;SDS011;33529;49.242;8.670;2022-07-29T12:30:52;5.45;;;3.60;;
47764;SDS011;33529;49.242;8.670;2022-07-29T12:33:23;5.78;;;4.38;;
47764;SDS011;33529;49.242;8.670;2022-07-29T12:35:59;7.95;;;3.58;;
47764;SDS011;33529;49.242;8.670;2022-07-29T12:38:33;7.47;;;3.93;;
47764;SDS011;33529;49.242;8.670;2022-07-29T12:41:01;7.43;;;4.03;;
47764;SDS011;33529;49.242;8.670;2022-07-29T12:43:30;4.65;;;3.33;;
47764;SDS011;33529;49.242;8.670;2022-07-29T12:45:57;4.93;;;3.58;;
47764;SDS011;33529;49.242;8.670;2022-07-29T12:48:38;7.60;;;4.15;;
47764;SDS011;33529;49.242;8.670;2022-07-29T12:51:07;5.97;;;3.50;;
47764;SDS011;33529;49.242;8.670;2022-07-29T12:53:35;5.25;;;3.38;;
47764;SDS011;33529;49.242;8.670;2022-07-29T12:56:03;4.78;;;3.60;;
47764;SDS011;33529;49.242;8.670;2022-07-29T12:58:51;4.70;;;3.67;;
47764;SDS011;33529;49.242;8.670;2022-07-29T13:01:19;8.13;;;4.05;;
47764;SDS011;33529;49.242;8.670;2022-07-29T13:03:51;4.47;;;3.40;;
47764;SDS011;33529;49.242;8.670;2022-07-29T13:09:04;4.93;;;3.42;;
47764;SDS011;33529;49.242;8.670;2022-07-29T13:14:02;5.88;;;4.13;;
47764;SDS011;33529;49.242;8.670;2022-07-29T13:16:32;4.18;;;3.75;;
47764;SDS011;33529;49.242;8.670;2022-07-29T13:19:03;6.30;;;3.97;;
47764;SDS011;33529;49.242;8.670;2022-07-29T13:21:35;9.35;;;3.50;;
47764;SDS011;33529;49.242;8.670;2022-07-29T13:24:03;5.07;;;3.45;;
47764;SDS011;33529;49.242;8.670;2022-07-29T13:26:34;7.32;;;3.47;;
47764;SDS011;33529;49.242;8.670;2022-07-29T13:29:05;6.30;;;3.88;;
47764;SDS011;33529;49.242;8.670;2022-07-29T13:31:32;5.38;;;3.78;;
47764;SDS011;33529;49.242;8.670;2022-07-29T13:33:59;4.70;;;3.60;;
47764;SDS011;33529;49.242;8.670;2022-07-29T13:36:26;4.68;;;3.30;;
47764;SDS011;33529;49.242;8.670;2022-07-29T13:38:53;4.65;;;3.42;;
47764;SDS011;33529;49.242;8.670;2022-07-29T13:41:20;6.85;;;3.50;;
47764;SDS011;33529;49.242;8.670;2022-07-29T13:43:51;4.13;;;2.97;;
47764;SDS011;33529;49.242;8.670;2022-07-29T13:46:18;5.75;;;3.10;;
47764;SDS011;33529;49.242;8.670;2022-07-29T13:48:45;5.68;;;3.38;;
47764;SDS011;33529;49.242;8.670;2022-07-29T13:51:12;4.63;;;3.58;;
47764;SDS011;33529;49.242;8.670;2022-07-29T13:53:39;4.18;;;3.20;;
47764;SDS011;33529;49.242;8.670;2022-07-29T13:56:06;4.20;;;3.05;;
47764;SDS011;33529;49.242;8.670;2022-07-29T13:58:33;5.97;;;3.38;;
47764;SDS011;33529;49.242;8.670;2022-07-29T14:01:01;6.70;;;3.65;;
47764;SDS011;33529;49.242;8.670;2022-07-29T14:03:28;5.63;;;3.03;;
47764;SDS011;33529;49.242;8.670;2022-07-29T14:05:55;8.63;;;2.92;;
47764;SDS011;33529;49.242;8.670;2022-07-29T14:08:22;4.43;;;2.63;;
47764;SDS011;33529;49.242;8.670;2022-07-29T14:10:49;4.72;;;2.70;;
47764;SDS011;33529;49.242;8.670;2022-07-29T14:13:16;5.38;;;2.67;;
47764;SDS011;33529;49.242;8.670;2022-07-29T14:15:51;4.53;;;2.58;;
47764;SDS011;33529;49.242;8.670;2022-07-29T14:18:17;5.43;;;2.72;;
47764;SDS011;33529;49.242;8.670;2022-07-29T14:20:44;4.80;;;2.40;;
47764;SDS011;33529;49.242;8.670;2022-07-29T14:23:11;5.03;;;2.63;;
47764;SDS011;33529;49.242;8.670;2022-07-29T14:25:41;3.60;;;2.40;;
47764;SDS011;33529;49.242;8.670;2022-07-29T14:28:09;3.70;;;2.53;;
47764;SDS011;33529;49.242;8.670;2022-07-29T14:30:36;3.03;;;2.35;;
47764;SDS011;33529;49.242;8.670;2022-07-29T14:33:03;3.88;;;2.50;;
47764;SDS011;33529;49.242;8.670;2022-07-29T14:35:30;3.28;;;2.25;;
47764;SDS011;33529;49.242;8.670;2022-07-29T14:37:57;4.05;;;2.10;;
47764;SDS011;33529;49.242;8.670;2022-07-29T14:40:24;7.25;;;2.28;;
47764;SDS011;33529;49.242;8.670;2022-07-29T14:42:51;2.78;;;1.80;;
47764;SDS011;33529;49.242;8.670;2022-07-29T14:45:18;4.10;;;2.13;;
47764;SDS011;33529;49.242;8.670;2022-07-29T14:47:45;5.43;;;1.67;;
47764;SDS011;33529;49.242;8.670;2022-07-29T14:50:13;3.97;;;2.00;;
47764;SDS011;33529;49.242;8.670;2022-07-29T14:52:40;3.63;;;1.95;;
47764;SDS011;33529;49.242;8.670;2022-07-29T14:55:07;4.70;;;1.77;;
47764;SDS011;33529;49.242;8.670;2022-07-29T14:57:43;4.28;;;2.20;;
47764;SDS011;33529;49.242;8.670;2022-07-29T15:00:10;4.43;;;1.90;;
47764;SDS011;33529;49.242;8.670;2022-07-29T15:02:39;2.33;;;1.70;;
47764;SDS011;33529;49.242;8.670;2022-07-29T15:05:26;3.67;;;1.80;;
47764;SDS011;33529;49.242;8.670;2022-07-29T15:07:53;2.92;;;1.48;;
47764;SDS011;33529;49.242;8.670;2022-07-29T15:10:20;3.72;;;2.03;;
47764;SDS011;33529;49.242;8.670;2022-07-29T15:12:50;3.90;;;1.90;;
47764;SDS011;33529;49.242;8.670;2022-07-29T15:15:16;3.85;;;1.98;;
47764;SDS011;33529;49.242;8.670;2022-07-29T15:17:43;3.88;;;1.83;;
47764;SDS011;33529;49.242;8.670;2022-07-29T15:20:11;3.70;;;1.90;;
47764;SDS011;33529;49.242;8.670;2022-07-29T15:22:38;4.13;;;2.20;;
47764;SDS011;33529;49.242;8.670;2022-07-29T15:25:09;3.42;;;2.08;;
47764;SDS011;33529;49.242;8.670;2022-07-29T15:27:36;3.10;;;1.63;;
47764;SDS011;33529;49.242;8.670;2022-07-29T15:30:03;3.50;;;1.90;;
47764;SDS011;33529;49.242;8.670;2022-07-29T15:32:30;3.80;;;1.70;;
47764;SDS011;33529;49.242;8.670;2022-07-29T15:34:57;3.80;;;2.13;;
47764;SDS011;33529;49.242;8.670;2022-07-29T15:37:24;2.30;;;1.50;;
47764;SDS011;33529;49.242;8.670;2022-07-29T15:39:51;2.58;;;1.52;;
47764;SDS011;33529;49.242;8.670;2022-07-29T15:42:23;4.65;;;1.92;;
47764;SDS011;33529;49.242;8.670;2022-07-29T15:44:50;4.85;;;2.08;;
47764;SDS011;33529;49.242;8.670;2022-07-29T15:47:17;3.88;;;1.80;;
47764;SDS011;33529;49.242;8.670;2022-07-29T15:49:44;3.80;;;2.10;;
47764;SDS011;33529;49.242;8.670;2022-07-29T15:52:15;4.07;;;1.70;;
47764;SDS011;33529;49.242;8.670;2022-07-29T15:54:50;5.35;;;2.08;;
47764;SDS011;33529;49.242;8.670;2022-07-29T15:57:17;5.38;;;1.73;;
47764;SDS011;33529;49.242;8.670;2022-07-29T15:59:44;5.60;;;1.67;;